sensor_id;sensor_type;location;lat;lon;timestamp;temperature;humidity
44863;DHT22;30597;49.628;10.850;2023-10-19T00:01:07;19.20;58.50
44863;DHT22;30597;49.628;10.850;2023-10-19T00:03:34;19.20;58.60
44863;DHT22;30597;49.628;10.850;2023-10-19T00:05:59;19.20;58.50
44863;DHT22;30597;49.628;10.850;2023-10-19T00:08:25;19.20;58.50
44863;DHT22;30597;49.628;10.850;2023-10-19T00:10:54;19.20;58.50
44863;DHT22;30597;49.628;10.850;2023-10-19T00:13:39;19.20;58.60
44863;DHT22;30597;49.628;10.850;2023-10-19T00:16:06;19.30;58.80
44863;DHT22;30597;49.628;10.850;2023-10-19T00:18:49;19.20;58.80
44863;DHT22;30597;49.628;10.850;2023-10-19T00:21:16;19.20;58.60
44863;DHT22;30597;49.628;10.850;2023-10-19T00:23:44;19.20;58.80
44863;DHT22;30597;49.628;10.850;2023-10-19T00:26:12;19.20;58.80
44863;DHT22;30597;49.628;10.850;2023-10-19T00:28:45;19.20;58.90
44863;DHT22;30597;49.628;10.850;2023-10-19T00:31:12;19.10;58.80
44863;DHT22;30597;49.628;10.850;2023-10-19T00:33:39;19.20;58.90
44863;DHT22;30597;49.628;10.850;2023-10-19T00:36:08;19.10;58.90
44863;DHT22;30597;49.628;10.850;2023-10-19T00:38:39;19.10;59.00
44863;DHT22;30597;49.628;10.850;2023-10-19T00:41:08;19.20;59.20
44863;DHT22;30597;49.628;10.850;2023-10-19T00:43:34;19.20;59.20
44863;DHT22;30597;49.628;10.850;2023-10-19T00:46:02;19.10;59.10
44863;DHT22;30597;49.628;10.850;2023-10-19T00:48:30;19.10;59.20
44863;DHT22;30597;49.628;10.850;2023-10-19T00:50:58;19.10;59.20
44863;DHT22;30597;49.628;10.850;2023-10-19T00:53:37;19.10;59.20
44863;DHT22;30597;49.628;10.850;2023-10-19T00:56:06;19.10;59.30
44863;DHT22;30597;49.628;10.850;2023-10-19T00:58:34;19.20;59.40
44863;DHT22;30597;49.628;10.850;2023-10-19T01:01:02;19.10;59.40
44863;DHT22;30597;49.628;10.850;2023-10-19T01:03:31;19.20;59.50
44863;DHT22;30597;49.628;10.850;2023-10-19T01:06:01;19.20;59.50
44863;DHT22;30597;49.628;10.850;2023-10-19T01:08:31;19.10;59.30
44863;DHT22;30597;49.628;10.850;2023-10-19T01:11:05;19.20;59.50
44863;DHT22;30597;49.628;10.850;2023-10-19T01:13:31;19.10;59.40
44863;DHT22;30597;49.628;10.850;2023-10-19T01:16:00;19.10;59.40
44863;DHT22;30597;49.628;10.850;2023-10-19T01:18:26;19.00;59.40
44863;DHT22;30597;49.628;10.850;2023-10-19T01:20:58;19.20;59.60
44863;DHT22;30597;49.628;10.850;2023-10-19T01:23:27;19.20;59.60
44863;DHT22;30597;49.628;10.850;2023-10-19T01:25:55;19.20;59.50
44863;DHT22;30597;49.628;10.850;2023-10-19T01:31:10;19.10;59.60
44863;DHT22;30597;49.628;10.850;2023-10-19T01:33:42;19.00;59.70
44863;DHT22;30597;49.628;10.850;2023-10-19T01:36:09;19.10;59.80
44863;DHT22;30597;49.628;10.850;2023-10-19T01:38:47;19.10;59.70
44863;DHT22;30597;49.628;10.850;2023-10-19T01:41:14;19.10;59.70
44863;DHT22;30597;49.628;10.850;2023-10-19T01:43:41;19.10;59.60
44863;DHT22;30597;49.628;10.850;2023-10-19T01:46:09;19.10;59.60
44863;DHT22;30597;49.628;10.850;2023-10-19T01:48:43;19.10;59.60
44863;DHT22;30597;49.628;10.850;2023-10-19T01:51:10;19.10;59.60
44863;DHT22;30597;49.628;10.850;2023-10-19T01:53:38;19.10;59.70
44863;DHT22;30597;49.628;10.850;2023-10-19T01:56:12;19.20;59.80
44863;DHT22;30597;49.628;10.850;2023-10-19T01:58:39;19.00;59.70
44863;DHT22;30597;49.628;10.850;2023-10-19T02:01:09;19.00;59.80
44863;DHT22;30597;49.628;10.850;2023-10-19T02:03:38;19.20;59.90
44863;DHT22;30597;49.628;10.850;2023-10-19T02:06:07;19.10;59.70
44863;DHT22;30597;49.628;10.850;2023-10-19T02:08:48;19.10;59.80
44863;DHT22;30597;49.628;10.850;2023-10-19T02:11:19;19.20;59.90
44863;DHT22;30597;49.628;10.850;2023-10-19T02:13:47;19.00;59.80
44863;DHT22;30597;49.628;10.850;2023-10-19T02:16:18;19.00;59.80
44863;DHT22;30597;49.628;10.850;2023-10-19T02:18:48;19.00;59.80
44863;DHT22;30597;49.628;10.850;2023-10-19T02:21:14;19.00;59.90
44863;DHT22;30597;49.628;10.850;2023-10-19T02:23:40;19.10;59.90
44863;DHT22;30597;49.628;10.850;2023-10-19T02:26:09;19.10;59.70
44863;DHT22;30597;49.628;10.850;2023-10-19T02:28:37;19.10;59.90
44863;DHT22;30597;49.628;10.850;2023-10-19T02:31:04;19.00;59.90
44863;DHT22;30597;49.628;10.850;2023-10-19T02:33:40;19.20;60.20
44863;DHT22;30597;49.628;10.850;2023-10-19T02:36:06;19.10;60.00
44863;DHT22;30597;49.628;10.850;2023-10-19T02:38:45;19.00;59.90
44863;DHT22;30597;49.628;10.850;2023-10-19T02:41:15;19.00;60.00
44863;DHT22;30597;49.628;10.850;2023-10-19T02:43:41;19.00;60.00
44863;DHT22;30597;49.628;10.850;2023-10-19T02:46:11;19.10;60.10
44863;DHT22;30597;49.628;10.850;2023-10-19T02:48:39;19.00;61.00
44863;DHT22;30597;49.628;10.850;2023-10-19T02:51:10;19.10;60.30
44863;DHT22;30597;49.628;10.850;2023-10-19T02:53:37;19.00;60.10
44863;DHT22;30597;49.628;10.850;2023-10-19T02:56:14;19.00;60.20
44863;DHT22;30597;49.628;10.850;2023-10-19T02:58:45;19.00;60.20
44863;DHT22;30597;49.628;10.850;2023-10-19T03:01:16;19.00;60.20
44863;DHT22;30597;49.628;10.850;2023-10-19T03:03:45;19.00;60.20
44863;DHT22;30597;49.628;10.850;2023-10-19T03:06:11;19.00;60.10
44863;DHT22;30597;49.628;10.850;2023-10-19T03:08:37;19.00;60.10
44863;DHT22;30597;49.628;10.850;2023-10-19T03:11:02;19.00;60.20
44863;DHT22;30597;49.628;10.850;2023-10-19T03:13:32;19.00;60.30
44863;DHT22;30597;49.628;10.850;2023-10-19T03:15:59;18.90;60.10
44863;DHT22;30597;49.628;10.850;2023-10-19T03:18:27;18.90;60.20
44863;DHT22;30597;49.628;10.850;2023-10-19T03:20:53;19.00;60.50
44863;DHT22;30597;49.628;10.850;2023-10-19T03:23:19;18.90;60.30
44863;DHT22;30597;49.628;10.850;2023-10-19T03:25:46;19.10;60.80
44863;DHT22;30597;49.628;10.850;2023-10-19T03:28:22;18.90;60.90
44863;DHT22;30597;49.628;10.850;2023-10-19T03:30:51;19.10;61.20
44863;DHT22;30597;49.628;10.850;2023-10-19T03:33:16;19.00;60.90
44863;DHT22;30597;49.628;10.850;2023-10-19T03:35:43;19.20;61.20
44863;DHT22;30597;49.628;10.850;2023-10-19T03:38:09;19.40;61.20
44863;DHT22;30597;49.628;10.850;2023-10-19T03:40:42;19.40;61.00
44863;DHT22;30597;49.628;10.850;2023-10-19T03:43:16;19.40;60.80
44863;DHT22;30597;49.628;10.850;2023-10-19T03:45:44;19.50;60.70
44863;DHT22;30597;49.628;10.850;2023-10-19T03:48:21;19.50;60.50
44863;DHT22;30597;49.628;10.850;2023-10-19T03:50:52;19.60;60.70
44863;DHT22;30597;49.628;10.850;2023-10-19T03:53:22;19.60;60.60
44863;DHT22;30597;49.628;10.850;2023-10-19T03:55:48;19.60;60.60
44863;DHT22;30597;49.628;10.850;2023-10-19T03:58:18;19.60;60.40
44863;DHT22;30597;49.628;10.850;2023-10-19T04:00:46;19.60;60.30
44863;DHT22;30597;49.628;10.850;2023-10-19T04:03:11;19.60;60.40
44863;DHT22;30597;49.628;10.850;2023-10-19T04:05:37;19.60;60.40
44863;DHT22;30597;49.628;10.850;2023-10-19T04:08:05;19.70;60.50
44863;DHT22;30597;49.628;10.850;2023-10-19T04:10:38;19.60;60.70
44863;DHT22;30597;49.628;10.850;2023-10-19T04:13:05;19.60;60.70
44863;DHT22;30597;49.628;10.850;2023-10-19T04:15:35;19.60;60.70
44863;DHT22;30597;49.628;10.850;2023-10-19T04:18:02;19.50;60.60
44863;DHT22;30597;49.628;10.850;2023-10-19T04:20:33;19.50;60.80
44863;DHT22;30597;49.628;10.850;2023-10-19T04:23:23;19.40;61.10
44863;DHT22;30597;49.628;10.850;2023-10-19T04:25:56;19.40;61.50
44863;DHT22;30597;49.628;10.850;2023-10-19T04:28:22;19.30;61.40
44863;DHT22;30597;49.628;10.850;2023-10-19T04:30:59;19.30;61.40
44863;DHT22;30597;49.628;10.850;2023-10-19T04:33:32;19.30;61.80
44863;DHT22;30597;49.628;10.850;2023-10-19T04:35:59;19.30;61.80
44863;DHT22;30597;49.628;10.850;2023-10-19T04:38:27;19.30;61.80
44863;DHT22;30597;49.628;10.850;2023-10-19T04:40:53;19.30;61.90
44863;DHT22;30597;49.628;10.850;2023-10-19T04:43:19;19.20;61.70
44863;DHT22;30597;49.628;10.850;2023-10-19T04:45:46;19.20;61.90
44863;DHT22;30597;49.628;10.850;2023-10-19T04:48:12;19.30;62.00
44863;DHT22;30597;49.628;10.850;2023-10-19T04:50:38;19.20;61.80
44863;DHT22;30597;49.628;10.850;2023-10-19T04:53:05;19.20;61.80
44863;DHT22;30597;49.628;10.850;2023-10-19T04:55:30;19.20;61.70
44863;DHT22;30597;49.628;10.850;2023-10-19T04:57:56;19.30;61.90
44863;DHT22;30597;49.628;10.850;2023-10-19T05:00:22;19.30;62.00
44863;DHT22;30597;49.628;10.850;2023-10-19T05:02:50;19.20;61.90
44863;DHT22;30597;49.628;10.850;2023-10-19T05:05:17;19.20;61.80
44863;DHT22;30597;49.628;10.850;2023-10-19T05:07:43;19.20;62.30
44863;DHT22;30597;49.628;10.850;2023-10-19T05:10:09;19.20;61.10
44863;DHT22;30597;49.628;10.850;2023-10-19T05:12:35;19.20;61.10
44863;DHT22;30597;49.628;10.850;2023-10-19T05:15:00;19.20;61.10
44863;DHT22;30597;49.628;10.850;2023-10-19T05:17:26;19.20;61.10
44863;DHT22;30597;49.628;10.850;2023-10-19T05:19:52;19.10;60.90
44863;DHT22;30597;49.628;10.850;2023-10-19T05:22:18;19.30;61.20
44863;DHT22;30597;49.628;10.850;2023-10-19T05:24:44;19.20;60.90
44863;DHT22;30597;49.628;10.850;2023-10-19T05:27:10;19.30;61.10
44863;DHT22;30597;49.628;10.850;2023-10-19T05:29:36;19.40;61.30
44863;DHT22;30597;49.628;10.850;2023-10-19T05:32:01;19.30;61.00
44863;DHT22;30597;49.628;10.850;2023-10-19T05:34:29;19.40;61.00
44863;DHT22;30597;49.628;10.850;2023-10-19T05:36:54;19.40;61.10
44863;DHT22;30597;49.628;10.850;2023-10-19T05:39:24;19.40;60.90
44863;DHT22;30597;49.628;10.850;2023-10-19T05:41:53;19.40;60.90
44863;DHT22;30597;49.628;10.850;2023-10-19T05:44:19;19.50;61.00
44863;DHT22;30597;49.628;10.850;2023-10-19T05:46:44;19.60;61.10
44863;DHT22;30597;49.628;10.850;2023-10-19T05:49:13;19.50;60.90
44863;DHT22;30597;49.628;10.850;2023-10-19T05:51:42;19.50;60.80
44863;DHT22;30597;49.628;10.850;2023-10-19T05:54:09;19.50;60.90
44863;DHT22;30597;49.628;10.850;2023-10-19T05:56:35;19.50;60.80
44863;DHT22;30597;49.628;10.850;2023-10-19T05:59:01;19.50;61.00
44863;DHT22;30597;49.628;10.850;2023-10-19T06:01:27;19.50;60.80
44863;DHT22;30597;49.628;10.850;2023-10-19T06:03:53;19.50;61.00
44863;DHT22;30597;49.628;10.850;2023-10-19T06:06:21;19.60;61.00
44863;DHT22;30597;49.628;10.850;2023-10-19T06:08:47;19.50;60.60
44863;DHT22;30597;49.628;10.850;2023-10-19T06:11:13;19.50;60.70
44863;DHT22;30597;49.628;10.850;2023-10-19T06:13:39;19.50;60.70
44863;DHT22;30597;49.628;10.850;2023-10-19T06:16:04;19.70;60.70
44863;DHT22;30597;49.628;10.850;2023-10-19T06:18:30;19.60;60.40
44863;DHT22;30597;49.628;10.850;2023-10-19T06:20:57;19.70;60.70
44863;DHT22;30597;49.628;10.850;2023-10-19T06:23:22;19.80;61.40
44863;DHT22;30597;49.628;10.850;2023-10-19T06:25:48;20.00;61.50
44863;DHT22;30597;49.628;10.850;2023-10-19T06:28:15;20.00;62.10
44863;DHT22;30597;49.628;10.850;2023-10-19T06:30:41;20.10;61.60
44863;DHT22;30597;49.628;10.850;2023-10-19T06:33:07;20.10;60.70
44863;DHT22;30597;49.628;10.850;2023-10-19T06:35:33;20.10;60.10
44863;DHT22;30597;49.628;10.850;2023-10-19T06:38:01;20.10;60.20
44863;DHT22;30597;49.628;10.850;2023-10-19T06:40:29;20.10;59.90
44863;DHT22;30597;49.628;10.850;2023-10-19T06:42:55;20.10;59.90
44863;DHT22;30597;49.628;10.850;2023-10-19T06:45:22;20.10;60.00
44863;DHT22;30597;49.628;10.850;2023-10-19T06:47:48;20.10;59.80
44863;DHT22;30597;49.628;10.850;2023-10-19T06:50:20;20.20;59.90
44863;DHT22;30597;49.628;10.850;2023-10-19T06:52:46;20.10;59.70
44863;DHT22;30597;49.628;10.850;2023-10-19T06:55:14;20.10;59.70
44863;DHT22;30597;49.628;10.850;2023-10-19T06:57:42;20.20;59.70
44863;DHT22;30597;49.628;10.850;2023-10-19T07:00:12;20.10;59.60
44863;DHT22;30597;49.628;10.850;2023-10-19T07:02:48;20.10;59.50
44863;DHT22;30597;49.628;10.850;2023-10-19T07:05:15;20.20;59.50
44863;DHT22;30597;49.628;10.850;2023-10-19T07:07:44;20.10;59.40
44863;DHT22;30597;49.628;10.850;2023-10-19T07:10:11;20.10;59.40
44863;DHT22;30597;49.628;10.850;2023-10-19T07:12:39;20.00;59.40
44863;DHT22;30597;49.628;10.850;2023-10-19T07:15:09;20.20;59.50
44863;DHT22;30597;49.628;10.850;2023-10-19T07:17:42;20.00;59.20
44863;DHT22;30597;49.628;10.850;2023-10-19T07:20:09;20.00;59.20
44863;DHT22;30597;49.628;10.850;2023-10-19T07:22:47;20.10;59.20
44863;DHT22;30597;49.628;10.850;2023-10-19T07:25:13;20.00;59.00
44863;DHT22;30597;49.628;10.850;2023-10-19T07:27:38;20.00;59.10
44863;DHT22;30597;49.628;10.850;2023-10-19T07:30:08;20.00;59.00
44863;DHT22;30597;49.628;10.850;2023-10-19T07:32:35;19.90;59.10
44863;DHT22;30597;49.628;10.850;2023-10-19T07:35:00;19.90;59.20
44863;DHT22;30597;49.628;10.850;2023-10-19T07:37:26;19.80;59.10
44863;DHT22;30597;49.628;10.850;2023-10-19T07:39:53;19.90;59.20
44863;DHT22;30597;49.628;10.850;2023-10-19T07:42:22;19.80;59.10
44863;DHT22;30597;49.628;10.850;2023-10-19T07:44:48;20.00;59.30
44863;DHT22;30597;49.628;10.850;2023-10-19T07:47:14;19.90;59.10
44863;DHT22;30597;49.628;10.850;2023-10-19T07:49:40;19.90;58.90
44863;DHT22;30597;49.628;10.850;2023-10-19T07:52:06;19.90;58.80
44863;DHT22;30597;49.628;10.850;2023-10-19T07:54:37;19.90;58.90
44863;DHT22;30597;49.628;10.850;2023-10-19T07:57:03;19.90;59.50
44863;DHT22;30597;49.628;10.850;2023-10-19T07:59:34;19.90;58.80
44863;DHT22;30597;49.628;10.850;2023-10-19T08:02:01;19.90;58.70
44863;DHT22;30597;49.628;10.850;2023-10-19T08:04:28;20.00;58.80
44863;DHT22;30597;49.628;10.850;2023-10-19T08:06:54;19.80;58.60
44863;DHT22;30597;49.628;10.850;2023-10-19T08:09:21;19.90;58.60
44863;DHT22;30597;49.628;10.850;2023-10-19T08:11:48;19.80;58.60
44863;DHT22;30597;49.628;10.850;2023-10-19T08:14:14;19.80;58.60
44863;DHT22;30597;49.628;10.850;2023-10-19T08:16:40;19.80;58.30
44863;DHT22;30597;49.628;10.850;2023-10-19T08:19:07;19.80;58.30
44863;DHT22;30597;49.628;10.850;2023-10-19T08:21:33;19.90;58.20
44863;DHT22;30597;49.628;10.850;2023-10-19T08:24:00;19.90;58.20
44863;DHT22;30597;49.628;10.850;2023-10-19T08:26:32;20.00;58.40
44863;DHT22;30597;49.628;10.850;2023-10-19T08:28:58;19.80;58.30
44863;DHT22;30597;49.628;10.850;2023-10-19T08:31:24;19.80;58.00
44863;DHT22;30597;49.628;10.850;2023-10-19T08:33:50;19.90;58.10
44863;DHT22;30597;49.628;10.850;2023-10-19T08:36:19;19.90;58.20
44863;DHT22;30597;49.628;10.850;2023-10-19T08:38:46;19.80;58.10
44863;DHT22;30597;49.628;10.850;2023-10-19T08:41:13;20.00;58.30
44863;DHT22;30597;49.628;10.850;2023-10-19T08:43:39;19.80;58.10
44863;DHT22;30597;49.628;10.850;2023-10-19T08:46:06;19.80;58.00
44863;DHT22;30597;49.628;10.850;2023-10-19T08:48:37;19.80;58.00
44863;DHT22;30597;49.628;10.850;2023-10-19T08:51:09;20.00;58.10
44863;DHT22;30597;49.628;10.850;2023-10-19T08:53:37;19.80;58.00
44863;DHT22;30597;49.628;10.850;2023-10-19T08:56:07;19.80;58.00
44863;DHT22;30597;49.628;10.850;2023-10-19T08:58:33;19.80;58.00
44863;DHT22;30597;49.628;10.850;2023-10-19T09:00:59;19.80;58.00
44863;DHT22;30597;49.628;10.850;2023-10-19T09:03:32;19.80;57.80
44863;DHT22;30597;49.628;10.850;2023-10-19T09:06:01;19.90;58.10
44863;DHT22;30597;49.628;10.850;2023-10-19T09:08:27;20.00;58.00
44863;DHT22;30597;49.628;10.850;2023-10-19T09:11:09;19.80;57.80
44863;DHT22;30597;49.628;10.850;2023-10-19T09:13:53;19.90;58.00
44863;DHT22;30597;49.628;10.850;2023-10-19T09:16:22;19.90;57.80
44863;DHT22;30597;49.628;10.850;2023-10-19T09:18:49;20.00;57.80
44863;DHT22;30597;49.628;10.850;2023-10-19T09:21:20;20.00;57.80
44863;DHT22;30597;49.628;10.850;2023-10-19T09:24:00;20.00;57.70
44863;DHT22;30597;49.628;10.850;2023-10-19T09:26:26;20.00;57.70
44863;DHT22;30597;49.628;10.850;2023-10-19T09:28:52;19.90;57.60
44863;DHT22;30597;49.628;10.850;2023-10-19T09:31:19;19.90;57.60
44863;DHT22;30597;49.628;10.850;2023-10-19T09:33:47;20.00;57.60
44863;DHT22;30597;49.628;10.850;2023-10-19T09:36:14;19.90;57.60
44863;DHT22;30597;49.628;10.850;2023-10-19T09:38:46;19.90;57.50
44863;DHT22;30597;49.628;10.850;2023-10-19T09:41:18;19.90;57.50
44863;DHT22;30597;49.628;10.850;2023-10-19T09:43:49;19.90;57.50
44863;DHT22;30597;49.628;10.850;2023-10-19T09:46:34;20.00;57.50
44863;DHT22;30597;49.628;10.850;2023-10-19T09:49:04;19.90;57.40
44863;DHT22;30597;49.628;10.850;2023-10-19T09:51:34;20.00;57.50
44863;DHT22;30597;49.628;10.850;2023-10-19T09:54:11;19.90;57.40
44863;DHT22;30597;49.628;10.850;2023-10-19T09:56:42;19.90;57.50
44863;DHT22;30597;49.628;10.850;2023-10-19T09:59:29;20.00;57.50
44863;DHT22;30597;49.628;10.850;2023-10-19T10:02:10;19.90;57.20
44863;DHT22;30597;49.628;10.850;2023-10-19T10:04:38;19.90;57.30
44863;DHT22;30597;49.628;10.850;2023-10-19T10:07:07;20.00;57.30
44863;DHT22;30597;49.628;10.850;2023-10-19T10:09:38;19.90;57.30
44863;DHT22;30597;49.628;10.850;2023-10-19T10:12:17;20.00;57.30
44863;DHT22;30597;49.628;10.850;2023-10-19T10:15:13;19.90;57.20
44863;DHT22;30597;49.628;10.850;2023-10-19T10:17:41;19.90;57.10
44863;DHT22;30597;49.628;10.850;2023-10-19T10:23:17;20.10;57.20
44863;DHT22;30597;49.628;10.850;2023-10-19T10:25:46;20.00;57.20
44863;DHT22;30597;49.628;10.850;2023-10-19T10:28:17;20.00;57.10
44863;DHT22;30597;49.628;10.850;2023-10-19T10:31:10;20.00;56.90
44863;DHT22;30597;49.628;10.850;2023-10-19T10:33:44;20.00;57.00
44863;DHT22;30597;49.628;10.850;2023-10-19T10:36:14;20.10;57.10
44863;DHT22;30597;49.628;10.850;2023-10-19T10:38:41;20.00;56.90
44863;DHT22;30597;49.628;10.850;2023-10-19T10:41:07;20.10;56.70
44863;DHT22;30597;49.628;10.850;2023-10-19T10:43:56;20.10;56.80
44863;DHT22;30597;49.628;10.850;2023-10-19T10:46:23;20.10;56.80
44863;DHT22;30597;49.628;10.850;2023-10-19T10:48:49;20.30;56.80
44863;DHT22;30597;49.628;10.850;2023-10-19T10:51:20;20.20;56.70
44863;DHT22;30597;49.628;10.850;2023-10-19T10:53:51;20.20;56.60
44863;DHT22;30597;49.628;10.850;2023-10-19T10:56:22;20.20;56.60
44863;DHT22;30597;49.628;10.850;2023-10-19T10:58:48;20.20;56.60
44863;DHT22;30597;49.628;10.850;2023-10-19T11:01:15;20.20;56.40
44863;DHT22;30597;49.628;10.850;2023-10-19T11:03:41;20.30;56.30
44863;DHT22;30597;49.628;10.850;2023-10-19T11:06:11;20.40;56.40
44863;DHT22;30597;49.628;10.850;2023-10-19T11:08:38;20.40;56.10
44863;DHT22;30597;49.628;10.850;2023-10-19T11:11:08;20.30;56.20
44863;DHT22;30597;49.628;10.850;2023-10-19T11:13:38;20.40;56.30
44863;DHT22;30597;49.628;10.850;2023-10-19T11:16:06;20.30;56.30
44863;DHT22;30597;49.628;10.850;2023-10-19T11:18:41;20.40;56.40
44863;DHT22;30597;49.628;10.850;2023-10-19T11:21:12;20.30;56.30
44863;DHT22;30597;49.628;10.850;2023-10-19T11:23:48;20.30;56.30
44863;DHT22;30597;49.628;10.850;2023-10-19T11:26:18;20.40;56.20
44863;DHT22;30597;49.628;10.850;2023-10-19T11:28:44;20.40;56.10
44863;DHT22;30597;49.628;10.850;2023-10-19T11:31:19;20.40;56.10
44863;DHT22;30597;49.628;10.850;2023-10-19T11:33:46;20.40;56.20
44863;DHT22;30597;49.628;10.850;2023-10-19T11:36:14;20.40;56.10
44863;DHT22;30597;49.628;10.850;2023-10-19T11:38:41;20.50;56.20
44863;DHT22;30597;49.628;10.850;2023-10-19T11:41:07;20.40;56.10
44863;DHT22;30597;49.628;10.850;2023-10-19T11:43:33;20.50;56.00
44863;DHT22;30597;49.628;10.850;2023-10-19T11:46:00;20.50;56.10
44863;DHT22;30597;49.628;10.850;2023-10-19T11:48:26;20.40;55.90
44863;DHT22;30597;49.628;10.850;2023-10-19T11:50:51;20.50;55.90
44863;DHT22;30597;49.628;10.850;2023-10-19T11:53:17;20.40;55.80
44863;DHT22;30597;49.628;10.850;2023-10-19T11:55:43;20.40;56.00
44863;DHT22;30597;49.628;10.850;2023-10-19T11:58:08;20.40;55.80
44863;DHT22;30597;49.628;10.850;2023-10-19T12:00:40;20.50;56.10
44863;DHT22;30597;49.628;10.850;2023-10-19T12:03:06;20.50;56.00
44863;DHT22;30597;49.628;10.850;2023-10-19T12:05:32;20.60;55.90
44863;DHT22;30597;49.628;10.850;2023-10-19T12:08:02;20.50;55.90
44863;DHT22;30597;49.628;10.850;2023-10-19T12:10:28;20.50;55.80
44863;DHT22;30597;49.628;10.850;2023-10-19T12:13:04;20.50;55.90
44863;DHT22;30597;49.628;10.850;2023-10-19T12:15:31;20.40;55.80
44863;DHT22;30597;49.628;10.850;2023-10-19T12:17:58;20.50;55.60
44863;DHT22;30597;49.628;10.850;2023-10-19T12:20:23;20.50;56.00
44863;DHT22;30597;49.628;10.850;2023-10-19T12:22:49;20.50;55.70
44863;DHT22;30597;49.628;10.850;2023-10-19T12:25:22;20.50;55.00
44863;DHT22;30597;49.628;10.850;2023-10-19T12:28:00;20.40;55.90
44863;DHT22;30597;49.628;10.850;2023-10-19T12:30:26;20.40;55.80
44863;DHT22;30597;49.628;10.850;2023-10-19T12:32:59;20.60;56.00
44863;DHT22;30597;49.628;10.850;2023-10-19T12:35:25;20.40;55.90
44863;DHT22;30597;49.628;10.850;2023-10-19T12:38:07;20.50;55.90
44863;DHT22;30597;49.628;10.850;2023-10-19T12:40:41;20.50;55.90
44863;DHT22;30597;49.628;10.850;2023-10-19T12:43:09;20.60;56.10
44863;DHT22;30597;49.628;10.850;2023-10-19T12:45:36;20.40;55.80
44863;DHT22;30597;49.628;10.850;2023-10-19T12:48:05;20.50;55.90
44863;DHT22;30597;49.628;10.850;2023-10-19T12:50:33;20.40;55.90
44863;DHT22;30597;49.628;10.850;2023-10-19T12:52:59;20.40;55.90
44863;DHT22;30597;49.628;10.850;2023-10-19T12:55:25;20.40;55.80
44863;DHT22;30597;49.628;10.850;2023-10-19T12:57:53;20.40;55.80
44863;DHT22;30597;49.628;10.850;2023-10-19T13:00:18;20.40;56.00
44863;DHT22;30597;49.628;10.850;2023-10-19T13:02:52;20.40;55.90
44863;DHT22;30597;49.628;10.850;2023-10-19T13:05:28;20.40;55.80
44863;DHT22;30597;49.628;10.850;2023-10-19T13:07:57;20.40;56.00
44863;DHT22;30597;49.628;10.850;2023-10-19T13:10:30;20.40;56.50
44863;DHT22;30597;49.628;10.850;2023-10-19T13:12:59;20.40;56.00
44863;DHT22;30597;49.628;10.850;2023-10-19T13:15:24;20.40;56.00
44863;DHT22;30597;49.628;10.850;2023-10-19T13:17:56;20.40;56.00
44863;DHT22;30597;49.628;10.850;2023-10-19T13:20:22;20.40;56.00
44863;DHT22;30597;49.628;10.850;2023-10-19T13:22:48;20.40;55.90
44863;DHT22;30597;49.628;10.850;2023-10-19T13:25:14;20.50;55.90
44863;DHT22;30597;49.628;10.850;2023-10-19T13:27:43;20.40;55.90
44863;DHT22;30597;49.628;10.850;2023-10-19T13:30:11;20.30;56.10
44863;DHT22;30597;49.628;10.850;2023-10-19T13:32:37;20.40;56.10
44863;DHT22;30597;49.628;10.850;2023-10-19T13:35:04;20.30;56.00
44863;DHT22;30597;49.628;10.850;2023-10-19T13:37:29;20.30;56.10
44863;DHT22;30597;49.628;10.850;2023-10-19T13:39:55;20.30;55.90
44863;DHT22;30597;49.628;10.850;2023-10-19T13:42:21;20.30;56.10
44863;DHT22;30597;49.628;10.850;2023-10-19T13:44:49;20.30;56.10
44863;DHT22;30597;49.628;10.850;2023-10-19T13:47:15;20.20;56.10
44863;DHT22;30597;49.628;10.850;2023-10-19T13:49:41;20.20;56.00
44863;DHT22;30597;49.628;10.850;2023-10-19T13:52:07;20.30;56.10
44863;DHT22;30597;49.628;10.850;2023-10-19T13:54:35;20.20;56.20
44863;DHT22;30597;49.628;10.850;2023-10-19T13:57:02;20.20;56.30
44863;DHT22;30597;49.628;10.850;2023-10-19T13:59:30;20.20;56.40
44863;DHT22;30597;49.628;10.850;2023-10-19T14:01:58;20.20;56.30
44863;DHT22;30597;49.628;10.850;2023-10-19T14:04:24;20.20;56.30
44863;DHT22;30597;49.628;10.850;2023-10-19T14:06:50;20.20;56.20
44863;DHT22;30597;49.628;10.850;2023-10-19T14:09:16;20.10;56.30
44863;DHT22;30597;49.628;10.850;2023-10-19T14:11:43;20.20;56.30
44863;DHT22;30597;49.628;10.850;2023-10-19T14:14:10;20.20;56.30
44863;DHT22;30597;49.628;10.850;2023-10-19T14:16:36;20.20;56.30
44863;DHT22;30597;49.628;10.850;2023-10-19T14:19:02;20.20;56.10
44863;DHT22;30597;49.628;10.850;2023-10-19T14:21:29;20.20;56.30
44863;DHT22;30597;49.628;10.850;2023-10-19T14:23:55;20.10;56.30
44863;DHT22;30597;49.628;10.850;2023-10-19T14:26:20;20.10;56.40
44863;DHT22;30597;49.628;10.850;2023-10-19T14:28:46;20.10;56.40
44863;DHT22;30597;49.628;10.850;2023-10-19T14:31:12;20.20;56.50
44863;DHT22;30597;49.628;10.850;2023-10-19T14:33:39;20.10;56.50
44863;DHT22;30597;49.628;10.850;2023-10-19T14:36:04;20.10;56.50
44863;DHT22;30597;49.628;10.850;2023-10-19T14:38:30;20.10;56.30
44863;DHT22;30597;49.628;10.850;2023-10-19T14:40:56;20.10;56.30
44863;DHT22;30597;49.628;10.850;2023-10-19T14:43:23;20.20;56.50
44863;DHT22;30597;49.628;10.850;2023-10-19T14:45:49;20.00;56.40
44863;DHT22;30597;49.628;10.850;2023-10-19T14:48:16;20.10;56.40
44863;DHT22;30597;49.628;10.850;2023-10-19T14:50:44;20.20;56.50
44863;DHT22;30597;49.628;10.850;2023-10-19T14:53:10;20.10;56.40
44863;DHT22;30597;49.628;10.850;2023-10-19T14:55:35;20.10;56.40
44863;DHT22;30597;49.628;10.850;2023-10-19T14:58:01;20.20;56.50
44863;DHT22;30597;49.628;10.850;2023-10-19T15:00:28;20.10;56.30
44863;DHT22;30597;49.628;10.850;2023-10-19T15:03:02;20.10;56.50
44863;DHT22;30597;49.628;10.850;2023-10-19T15:05:32;20.00;56.50
44863;DHT22;30597;49.628;10.850;2023-10-19T15:08:01;20.00;56.50
44863;DHT22;30597;49.628;10.850;2023-10-19T15:10:28;20.00;56.50
44863;DHT22;30597;49.628;10.850;2023-10-19T15:12:54;20.00;56.50
44863;DHT22;30597;49.628;10.850;2023-10-19T15:15:28;20.00;56.50
44863;DHT22;30597;49.628;10.850;2023-10-19T15:17:54;20.00;56.60
44863;DHT22;30597;49.628;10.850;2023-10-19T15:20:23;20.00;56.50
44863;DHT22;30597;49.628;10.850;2023-10-19T15:22:50;20.00;56.60
44863;DHT22;30597;49.628;10.850;2023-10-19T15:25:16;20.00;56.40
44863;DHT22;30597;49.628;10.850;2023-10-19T15:27:45;20.00;56.50
44863;DHT22;30597;49.628;10.850;2023-10-19T15:30:12;20.00;56.50